Time;durP1;ratioP1;P1;durP2;ratioP2;P2;SDS_P1;SDS_P2;PMS_P1;PMS_P2;Temp;Humidity;BMP_temperature;BMP_pressure;BME280_temperature;BME280_humidity;BME280_pressure;Samples;Min_cycle;Max_cycle;Signal;HPM_P1;HPM_P2
2024/01/03 00:02:03;;;;;;;1.63;0.88;;;22.80;54.30;;;;;;4953874;28;91258;-81
2024/01/03 00:04:29;;;;;;;2.97;0.75;;;22.80;54.30;;;;;;4954122;28;88054;-83
2024/01/03 00:06:55;;;;;;;2.22;1.00;;;22.70;54.40;;;;;;4951799;28;88373;-82
2024/01/03 00:09:21;;;;;;;1.75;0.80;;;22.70;54.40;;;;;;4953566;28;87691;-83
2024/01/03 00:11:47;;;;;;;1.48;0.60;;;22.70;54.20;;;;;;4951699;28;87912;-82
2024/01/03 00:14:29;;;;;;;1.35;0.55;;;22.70;54.40;;;;;;4951214;28;87857;-82
2024/01/03 00:16:59;;;;;;;2.28;0.80;;;22.60;54.30;;;;;;4953946;28;87488;-82
2024/01/03 00:19:25;;;;;;;1.63;0.80;;;22.60;54.60;;;;;;4951796;28;88021;-83
2024/01/03 00:21:51;;;;;;;1.98;0.88;;;22.60;54.50;;;;;;4951348;28;88132;-82
2024/01/03 00:24:19;;;;;;;1.75;0.70;;;22.60;54.50;;;;;;4952939;28;89196;-82
2024/01/03 00:26:44;;;;;;;3.47;1.08;;;22.60;54.40;;;;;;4956292;28;86957;-83
2024/01/03 00:29:22;;;;;;;1.48;0.82;;;22.50;54.50;;;;;;4957944;28;88413;-84
2024/01/03 00:31:48;;;;;;;2.40;1.10;;;22.60;55.20;;;;;;4965721;28;88291;-82
2024/01/03 00:34:34;;;;;;;2.40;1.05;;;22.50;54.40;;;;;;4967299;28;87041;-82
2024/01/03 00:36:59;;;;;;;2.30;1.35;;;22.50;54.40;;;;;;4960294;28;87593;-82
2024/01/03 00:39:27;;;;;;;1.75;0.85;;;22.50;54.60;;;;;;4960217;28;87897;-85
2024/01/03 00:41:53;;;;;;;1.60;1.05;;;22.50;54.50;;;;;;4957005;28;87562;-86
2024/01/03 00:44:18;;;;;;;1.23;0.70;;;22.50;54.50;;;;;;4957834;28;87696;-83
2024/01/03 00:46:45;;;;;;;1.48;1.02;;;22.50;54.50;;;;;;4959350;28;87463;-83
2024/01/03 00:49:11;;;;;;;2.65;0.85;;;22.40;54.50;;;;;;4958044;28;89139;-82
2024/01/03 00:51:37;;;;;;;3.42;1.02;;;22.40;54.60;;;;;;4954801;28;88346;-83
2024/01/03 00:54:03;;;;;;;2.80;0.93;;;22.40;54.50;;;;;;4955939;28;87736;-83
2024/01/03 00:56:29;;;;;;;1.55;0.85;;;22.40;54.50;;;;;;4956240;28;88126;-82
2024/01/03 00:58:55;;;;;;;3.50;1.10;;;22.40;54.60;;;;;;4953577;28;87621;-82
2024/01/03 01:01:21;;;;;;;2.47;1.17;;;22.40;54.40;;;;;;4953504;28;87977;-82
2024/01/03 01:03:47;;;;;;;1.88;0.88;;;22.30;54.60;;;;;;4956283;28;87682;-83
2024/01/03 01:06:13;;;;;;;1.63;0.80;;;22.30;54.70;;;;;;4956839;28;87000;-82
2024/01/03 01:08:38;;;;;;;2.10;0.90;;;22.30;54.70;;;;;;4956853;28;87594;-85
2024/01/03 01:11:04;;;;;;;2.08;0.80;;;22.30;54.70;;;;;;4956286;28;87998;-83
2024/01/03 01:13:29;;;;;;;1.95;0.82;;;22.30;54.70;;;;;;4953598;28;88876;-82
2024/01/03 01:15:55;;;;;;;1.38;0.80;;;22.30;54.70;;;;;;4958271;28;87243;-84
2024/01/03 01:18:21;;;;;;;1.90;0.88;;;22.30;54.70;;;;;;4955727;28;87591;-82
2024/01/03 01:20:46;;;;;;;2.83;1.00;;;22.20;54.60;;;;;;4953792;28;87287;-81
2024/01/03 01:23:12;;;;;;;1.55;0.88;;;22.20;55.40;;;;;;4954357;28;87573;-82
2024/01/03 01:25:37;;;;;;;1.73;0.80;;;22.20;54.70;;;;;;4955873;28;87864;-84
2024/01/03 01:28:03;;;;;;;2.63;0.63;;;22.20;54.60;;;;;;4960454;28;87393;-82
2024/01/03 01:30:29;;;;;;;2.40;1.17;;;22.20;54.70;;;;;;4962798;28;86973;-84
2024/01/03 01:32:54;;;;;;;1.00;0.60;;;22.20;54.70;;;;;;4960280;28;87952;-82
2024/01/03 01:35:20;;;;;;;2.15;1.00;;;22.20;54.70;;;;;;4960154;28;87485;-82
2024/01/03 01:37:46;;;;;;;1.58;0.63;;;22.10;54.70;;;;;;4960462;28;91773;-83
2024/01/03 01:40:12;;;;;;;2.15;0.93;;;22.10;54.70;;;;;;4966366;28;88735;-82
2024/01/03 01:42:41;;;;;;;1.35;0.68;;;22.10;54.70;;;;;;4964935;28;87683;-83
2024/01/03 01:45:08;;;;;;;1.15;0.80;;;22.10;54.80;;;;;;4963374;28;87648;-86
2024/01/03 01:47:33;;;;;;;1.10;0.60;;;22.10;54.60;;;;;;4961669;28;88120;-83
2024/01/03 01:50:00;;;;;;;1.98;0.80;;;22.10;54.60;;;;;;4965842;28;87705;-84
2024/01/03 01:52:25;;;;;;;1.30;0.80;;;22.10;54.60;;;;;;4969077;28;87604;-81
2024/01/03 01:54:51;;;;;;;1.77;0.80;;;22.10;54.70;;;;;;4965328;28;86980;-82
2024/01/03 01:57:18;;;;;;;1.92;0.90;;;22.10;54.80;;;;;;4958817;28;93397;-82
2024/01/03 01:59:45;;;;;;;0.90;0.50;;;22.00;54.70;;;;;;4979272;28;89001;-82
2024/01/03 02:02:12;;;;;;;1.15;0.80;;;22.00;54.70;;;;;;4980758;28;87850;-82
2024/01/03 02:04:38;;;;;;;1.55;0.60;;;22.00;54.70;;;;;;4974382;28;87631;-82
2024/01/03 02:07:05;;;;;;;1.67;0.70;;;22.00;54.70;;;;;;4966290;28;87665;-83
2024/01/03 02:09:31;;;;;;;1.52;1.00;;;22.00;54.80;;;;;;4959942;28;88956;-82
2024/01/03 02:11:57;;;;;;;2.10;0.98;;;22.00;54.80;;;;;;4956032;28;87635;-82
2024/01/03 02:14:22;;;;;;;2.63;0.98;;;22.00;54.70;;;;;;4953943;28;89550;-82
2024/01/03 02:16:48;;;;;;;1.95;0.90;;;22.00;54.70;;;;;;4959064;28;87379;-83
2024/01/03 02:19:13;;;;;;;1.88;0.95;;;22.00;54.90;;;;;;4954166;28;87919;-82
2024/01/03 02:21:39;;;;;;;2.33;0.88;;;21.90;54.80;;;;;;4954210;28;87832;-82
2024/01/03 02:24:05;;;;;;;4.32;0.80;;;21.90;54.80;;;;;;4954150;28;88086;-83
2024/01/03 02:26:30;;;;;;;1.85;0.70;;;21.90;54.80;;;;;;4951770;28;88854;-85
2024/01/03 02:28:56;;;;;;;1.63;0.95;;;21.90;54.80;;;;;;4955282;28;88229;-83
2024/01/03 02:31:22;;;;;;;1.27;0.70;;;21.90;54.70;;;;;;4953933;28;87396;-82
2024/01/03 02:33:47;;;;;;;1.40;0.70;;;21.90;54.70;;;;;;4958420;28;88285;-83
2024/01/03 02:36:14;;;;;;;1.42;0.60;;;21.90;54.80;;;;;;4959230;28;87243;-81
2024/01/03 02:38:45;;;;;;;2.33;0.82;;;21.90;54.70;;;;;;4956700;28;88550;-82
2024/01/03 02:41:10;;;;;;;1.02;0.60;;;21.90;54.80;;;;;;4955090;28;87501;-82
2024/01/03 02:43:36;;;;;;;1.70;1.00;;;21.90;54.80;;;;;;4954498;28;89700;-83
2024/01/03 02:46:02;;;;;;;1.83;0.85;;;21.80;54.70;;;;;;4955016;28;88062;-82
2024/01/03 02:48:27;;;;;;;1.88;1.00;;;21.80;54.70;;;;;;4950462;28;87558;-83
2024/01/03 02:50:53;;;;;;;1.33;0.63;;;21.80;54.60;;;;;;4955232;28;88580;-82
2024/01/03 02:53:18;;;;;;;1.85;0.88;;;21.80;54.80;;;;;;4952726;28;87463;-82
2024/01/03 02:55:44;;;;;;;0.93;0.60;;;21.80;54.70;;;;;;4953866;28;87864;-82
2024/01/03 02:58:10;;;;;;;0.65;0.60;;;21.80;54.70;;;;;;4950279;28;87984;-82
2024/01/03 03:00:36;;;;;;;0.90;0.50;;;21.80;54.60;;;;;;4951307;28;87373;-82
2024/01/03 03:03:02;;;;;;;1.63;0.80;;;21.80;54.60;;;;;;4954414;28;87430;-83
2024/01/03 03:05:28;;;;;;;1.40;0.50;;;21.80;54.50;;;;;;4952878;28;88243;-82
2024/01/03 03:07:53;;;;;;;2.63;1.10;;;21.80;54.80;;;;;;4953134;28;87192;-83
2024/01/03 03:10:19;;;;;;;1.25;0.70;;;21.80;54.60;;;;;;4950431;28;87272;-82
2024/01/03 03:12:45;;;;;;;1.52;0.80;;;21.70;54.60;;;;;;4956911;28;87496;-82
2024/01/03 03:15:10;;;;;;;1.17;0.73;;;21.70;54.70;;;;;;4953001;28;88962;-82
2024/01/03 03:17:36;;;;;;;0.95;0.55;;;21.70;54.80;;;;;;4949794;28;88156;-83
2024/01/03 03:20:02;;;;;;;2.10;1.00;;;21.70;55.40;;;;;;4949161;28;87288;-83
2024/01/03 03:22:27;;;;;;;1.55;0.68;;;21.70;54.60;;;;;;4951435;28;87559;-82
2024/01/03 03:24:53;;;;;;;1.58;0.80;;;21.70;54.60;;;;;;4950002;28;89228;-83
2024/01/03 03:27:18;;;;;;;1.48;0.80;;;21.70;54.50;;;;;;4952070;28;87850;-82
2024/01/03 03:29:44;;;;;;;1.95;0.90;;;21.70;54.50;;;;;;4951448;28;87390;-82
2024/01/03 03:32:13;;;;;;;1.40;0.70;;;21.60;54.70;;;;;;4950688;28;87282;-82
2024/01/03 03:34:38;;;;;;;2.37;0.83;;;21.60;54.80;;;;;;4954510;28;87543;-82
2024/01/03 03:37:04;;;;;;;1.77;0.90;;;21.60;54.70;;;;;;4954448;28;87790;-82
2024/01/03 03:39:30;;;;;;;2.00;0.80;;;21.60;54.70;;;;;;4952945;28;88765;-84
2024/01/03 03:41:55;;;;;;;1.90;0.80;;;21.60;54.80;;;;;;4951119;28;87759;-83
2024/01/03 03:44:21;;;;;;;1.92;0.95;;;21.60;54.80;;;;;;4946348;28;87498;-84
2024/01/03 03:46:47;;;;;;;1.05;0.47;;;21.60;54.80;;;;;;4959375;28;88153;-82
2024/01/03 03:49:12;;;;;;;1.70;0.70;;;21.60;54.70;;;;;;4950269;28;87477;-81
2024/01/03 03:51:38;;;;;;;1.23;0.50;;;21.60;54.80;;;;;;4954337;28;87989;-82
2024/01/03 03:54:03;;;;;;;1.30;0.88;;;21.60;54.70;;;;;;4949216;28;90824;-82
2024/01/03 03:56:29;;;;;;;0.95;0.50;;;21.60;54.60;;;;;;4955571;28;87912;-82
2024/01/03 03:58:56;;;;;;;1.35;0.60;;;21.60;54.80;;;;;;4954921;28;87703;-82
2024/01/03 04:01:21;;;;;;;1.77;0.63;;;21.60;54.70;;;;;;4953497;28;87990;-84
2024/01/03 04:03:47;;;;;;;1.25;0.70;;;21.50;54.70;;;;;;4950628;28;89499;-82
2024/01/03 04:06:15;;;;;;;0.70;0.68;;;21.50;54.80;;;;;;4948205;28;88151;-82
2024/01/03 04:08:44;;;;;;;2.75;0.75;;;21.50;54.70;;;;;;4953045;28;88107;-82
2024/01/03 04:11:10;;;;;;;;;;;21.50;54.80;;;;;;4951539;28;87361;-83
2024/01/03 04:13:38;;;;;;;1.27;0.80;;;21.50;54.70;;;;;;4951986;28;90732;-82
2024/01/03 04:16:10;;;;;;;2.20;0.70;;;21.50;54.90;;;;;;4951382;28;88000;-82
2024/01/03 04:18:36;;;;;;;1.25;0.60;;;21.50;54.80;;;;;;4949502;28;87541;-83
2024/01/03 04:21:05;;;;;;;1.20;0.68;;;21.50;54.80;;;;;;4948995;28;86710;-81
2024/01/03 04:23:31;;;;;;;3.05;1.13;;;21.50;54.80;;;;;;4954170;28;88015;-82
2024/01/03 04:25:57;;;;;;;2.33;0.70;;;21.50;54.80;;;;;;4948750;28;88403;-83
2024/01/03 04:28:22;;;;;;;1.77;0.85;;;21.50;54.80;;;;;;4948254;28;88812;-81
2024/01/03 04:30:48;;;;;;;1.30;0.60;;;21.40;54.90;;;;;;4950496;28;87725;-82
2024/01/03 04:33:14;;;;;;;1.10;0.70;;;21.40;55.00;;;;;;4949615;28;87691;-80
2024/01/03 04:35:39;;;;;;;2.03;0.82;;;21.40;54.90;;;;;;4953021;28;89036;-82
2024/01/03 04:38:05;;;;;;;1.55;0.68;;;21.40;54.90;;;;;;4948282;28;87367;-83
2024/01/03 04:40:33;;;;;;;1.25;0.77;;;21.40;54.90;;;;;;4950463;28;88523;-82
2024/01/03 04:42:59;;;;;;;0.95;0.60;;;21.40;54.90;;;;;;4951340;28;88296;-82
2024/01/03 04:45:24;;;;;;;1.38;1.00;;;21.40;54.90;;;;;;4954808;28;87253;-83
2024/01/03 04:47:50;;;;;;;1.10;0.60;;;21.40;54.90;;;;;;4950807;28;87353;-82
2024/01/03 04:50:17;;;;;;;0.77;0.52;;;21.40;55.00;;;;;;4949519;28;87799;-82
2024/01/03 04:52:43;;;;;;;0.40;0.30;;;21.30;54.90;;;;;;4953904;28;89800;-82
2024/01/03 04:55:09;;;;;;;1.10;0.60;;;21.30;54.90;;;;;;4953807;28;89635;-82
2024/01/03 04:57:35;;;;;;;1.05;0.60;;;21.30;55.00;;;;;;4950201;28;87963;-81
2024/01/03 05:00:01;;;;;;;1.25;0.82;;;21.30;55.00;;;;;;4947752;28;89932;-83
2024/01/03 05:02:26;;;;;;;1.00;0.60;;;21.40;55.10;;;;;;4952093;28;87486;-83
2024/01/03 05:04:52;;;;;;;1.02;0.50;;;21.30;55.00;;;;;;4953557;28;88993;-85
2024/01/03 05:07:18;;;;;;;0.93;0.60;;;21.30;55.70;;;;;;4952141;28;87582;-82
2024/01/03 05:09:44;;;;;;;2.17;0.70;;;21.30;55.00;;;;;;4952805;28;86993;-82
2024/01/03 05:12:10;;;;;;;1.60;0.70;;;21.30;55.00;;;;;;4951794;28;88836;-85
2024/01/03 05:14:36;;;;;;;1.38;0.60;;;21.30;55.00;;;;;;4954567;28;87350;-81
2024/01/03 05:17:02;;;;;;;1.70;0.80;;;21.30;55.00;;;;;;4958493;28;88221;-82
2024/01/03 05:19:28;;;;;;;2.47;0.60;;;21.30;54.90;;;;;;4952993;28;88192;-82
2024/01/03 05:21:53;;;;;;;1.23;0.80;;;21.30;54.90;;;;;;4956924;28;87260;-82
2024/01/03 05:24:20;;;;;;;1.25;0.63;;;21.30;55.10;;;;;;4950491;28;90490;-85
2024/01/03 05:26:46;;;;;;;3.13;0.77;;;21.30;55.20;;;;;;4952282;28;87328;-83
2024/01/03 05:29:12;;;;;;;1.02;0.60;;;21.20;55.00;;;;;;4950225;28;87920;-82
2024/01/03 05:31:38;;;;;;;1.95;0.82;;;21.20;55.20;;;;;;4955679;28;90188;-83
2024/01/03 05:34:04;;;;;;;0.70;0.60;;;21.20;55.00;;;;;;4954413;28;87332;-82
2024/01/03 05:36:30;;;;;;;0.50;0.50;;;21.20;55.00;;;;;;4952046;28;87415;-83
2024/01/03 05:38:56;;;;;;;1.38;0.70;;;21.20;55.10;;;;;;4948921;28;88074;-84
2024/01/03 05:41:22;;;;;;;0.98;0.50;;;21.20;55.00;;;;;;4951729;28;88543;-81
2024/01/03 05:43:47;;;;;;;1.30;0.60;;;21.20;55.00;;;;;;4953319;28;88798;-82
2024/01/03 05:46:13;;;;;;;0.80;0.52;;;21.20;55.20;;;;;;4952022;28;87145;-82
2024/01/03 05:48:38;;;;;;;0.90;0.60;;;21.20;55.00;;;;;;4952722;28;88280;-82
2024/01/03 05:51:06;;;;;;;1.52;0.70;;;21.20;55.00;;;;;;4952983;28;87792;-83
2024/01/03 05:53:31;;;;;;;0.90;0.50;;;21.20;55.00;;;;;;4952238;28;87826;-82
2024/01/03 05:55:57;;;;;;;1.85;0.75;;;21.20;55.00;;;;;;4949989;28;88051;-82
2024/01/03 05:58:23;;;;;;;0.73;0.50;;;21.20;55.10;;;;;;4951060;28;87030;-82
2024/01/03 06:00:49;;;;;;;1.17;0.60;;;21.20;54.90;;;;;;4950370;28;89127;-82
2024/01/03 06:03:14;;;;;;;0.88;0.55;;;21.20;55.10;;;;;;4944700;28;88305;-82
2024/01/03 06:05:40;;;;;;;1.00;0.40;;;21.10;55.00;;;;;;4951907;28;88473;-83
2024/01/03 06:08:06;;;;;;;1.20;0.73;;;21.20;55.10;;;;;;4954388;28;87465;-82
2024/01/03 06:10:32;;;;;;;2.05;0.68;;;21.20;54.50;;;;;;4951222;28;91485;-82
2024/01/03 06:12:58;;;;;;;0.90;0.60;;;21.20;55.00;;;;;;4957136;28;88032;-82
2024/01/03 06:15:23;;;;;;;1.83;0.80;;;21.10;54.90;;;;;;4954951;28;87563;-83
2024/01/03 06:17:49;;;;;;;1.90;0.82;;;21.20;54.90;;;;;;4956650;28;87731;-82
2024/01/03 06:20:15;;;;;;;1.50;0.70;;;21.20;54.90;;;;;;4957073;28;88098;-83
2024/01/03 06:22:41;;;;;;;0.38;0.38;;;21.20;54.80;;;;;;4956945;28;87246;-83
2024/01/03 06:25:06;;;;;;;1.20;0.65;;;21.20;54.80;;;;;;4954560;28;87570;-82
2024/01/03 06:27:32;;;;;;;1.27;0.60;;;21.20;54.90;;;;;;4956611;28;87942;-83
2024/01/03 06:29:58;;;;;;;0.93;0.50;;;21.20;54.70;;;;;;4957546;28;88902;-82
2024/01/03 06:32:23;;;;;;;2.08;0.65;;;21.20;54.70;;;;;;4956876;28;88834;-81
2024/01/03 06:34:49;;;;;;;1.13;0.75;;;21.20;54.70;;;;;;4958143;28;88330;-82
2024/01/03 06:37:15;;;;;;;1.77;0.70;;;21.20;54.80;;;;;;4961209;28;87474;-82
2024/01/03 06:39:40;;;;;;;1.13;0.57;;;21.20;54.70;;;;;;4955081;28;87755;-83
2024/01/03 06:42:06;;;;;;;1.05;0.55;;;21.20;54.70;;;;;;4959410;28;87313;-82
2024/01/03 06:44:32;;;;;;;2.00;0.98;;;21.10;54.80;;;;;;4958900;28;87827;-90
2024/01/03 06:46:58;;;;;;;1.63;1.02;;;21.10;54.40;;;;;;4963165;28;86513;-87
2024/01/03 06:49:23;;;;;;;4.80;0.82;;;21.10;54.50;;;;;;4961070;28;90666;-87
2024/01/03 06:51:49;;;;;;;2.50;0.90;;;21.10;54.80;;;;;;4959646;28;87782;-84
2024/01/03 06:54:15;;;;;;;1.75;0.80;;;21.10;54.80;;;;;;4958824;28;88313;-83
2024/01/03 06:56:40;;;;;;;2.75;0.98;;;21.10;54.60;;;;;;4959934;28;87485;-83
2024/01/03 06:59:06;;;;;;;11.50;2.63;;;21.10;54.60;;;;;;4959473;28;88031;-83
2024/01/03 07:01:32;;;;;;;17.67;3.42;;;21.20;54.60;;;;;;4956491;28;87623;-85
2024/01/03 07:03:59;;;;;;;21.45;5.28;;;21.30;54.60;;;;;;4958819;28;87509;-86
2024/01/03 07:06:25;;;;;;;25.65;7.15;;;21.30;55.10;;;;;;4959926;28;87975;-86
2024/01/03 07:08:53;;;;;;;25.30;6.55;;;21.50;55.40;;;;;;4957506;28;88126;-84
2024/01/03 07:11:19;;;;;;;29.33;7.13;;;21.60;55.50;;;;;;4956623;28;88454;-83
2024/01/03 07:13:45;;;;;;;27.25;8.07;;;21.60;55.40;;;;;;4957947;28;88161;-80
2024/01/03 07:16:11;;;;;;;30.02;6.50;;;21.60;55.00;;;;;;4953066;28;87589;-81
2024/01/03 07:18:36;;;;;;;30.98;7.88;;;21.60;55.10;;;;;;4955935;28;88964;-82
2024/01/03 07:21:02;;;;;;;28.70;7.13;;;21.70;55.20;;;;;;4955102;28;88912;-84
2024/01/03 07:23:28;;;;;;;30.35;10.00;;;21.70;55.00;;;;;;4957539;28;87596;-82
2024/01/03 07:25:53;;;;;;;31.83;8.32;;;21.80;54.90;;;;;;4954911;28;87600;-83
2024/01/03 07:28:19;;;;;;;30.92;7.53;;;21.80;54.90;;;;;;4955655;28;87700;-82
2024/01/03 07:30:45;;;;;;;32.03;8.02;;;21.90;54.90;;;;;;4956085;28;87519;-83
2024/01/03 07:33:10;;;;;;;34.33;9.10;;;21.90;55.00;;;;;;4954212;28;87355;-81
2024/01/03 07:35:36;;;;;;;23.08;6.43;;;21.90;55.00;;;;;;4959715;28;87021;-88
2024/01/03 07:38:02;;;;;;;32.80;7.95;;;21.90;54.00;;;;;;4963145;28;88371;-83
2024/01/03 07:40:28;;;;;;;22.20;5.40;;;22.00;54.60;;;;;;4959234;28;88106;-80
2024/01/03 07:42:54;;;;;;;21.45;6.45;;;22.00;54.40;;;;;;4960051;28;88007;-82
2024/01/03 07:45:19;;;;;;;22.40;6.68;;;22.10;54.00;;;;;;4962367;28;86980;-84
2024/01/03 07:47:45;;;;;;;21.83;6.03;;;22.10;53.60;;;;;;4965777;28;88535;-83
2024/01/03 07:50:11;;;;;;;25.65;6.80;;;22.20;53.40;;;;;;4966173;28;87997;-86
2024/01/03 07:52:37;;;;;;;23.40;6.60;;;22.20;53.20;;;;;;4957356;28;87374;-83
2024/01/03 07:55:04;;;;;;;20.38;5.93;;;22.20;53.20;;;;;;4956925;28;87987;-81
2024/01/03 07:57:29;;;;;;;21.17;6.35;;;22.20;53.00;;;;;;4955757;28;87822;-86
2024/01/03 07:59:55;;;;;;;22.38;6.10;;;22.30;52.90;;;;;;4958427;28;87885;-85
2024/01/03 08:02:21;;;;;;;16.42;5.63;;;22.30;52.90;;;;;;4958048;28;87880;-82
2024/01/03 08:04:46;;;;;;;20.02;6.30;;;22.30;52.90;;;;;;4957805;28;87612;-86
2024/01/03 08:07:12;;;;;;;22.92;6.22;;;22.30;53.00;;;;;;4956994;28;94491;-82
2024/01/03 08:09:38;;;;;;;17.42;5.07;;;22.30;53.10;;;;;;4957544;28;87948;-78
2024/01/03 08:12:06;;;;;;;21.27;6.03;;;22.40;53.10;;;;;;4956155;28;87921;-81
2024/01/03 08:14:31;;;;;;;18.42;6.22;;;22.40;53.20;;;;;;4956751;28;87548;-84
2024/01/03 08:16:57;;;;;;;22.77;6.68;;;22.40;53.30;;;;;;4954495;28;88217;-81
2024/01/03 08:19:23;;;;;;;20.88;6.22;;;22.40;53.20;;;;;;4956220;28;87659;-82
2024/01/03 08:21:48;;;;;;;19.23;6.00;;;22.40;53.30;;;;;;4957156;28;87470;-83
2024/01/03 08:24:14;;;;;;;21.60;6.25;;;22.40;53.30;;;;;;4956099;28;88694;-80
2024/01/03 08:26:40;;;;;;;22.65;5.85;;;22.50;53.50;;;;;;4953958;28;87625;-83
2024/01/03 08:29:06;;;;;;;19.48;5.13;;;22.50;53.40;;;;;;4953878;28;87536;-80
2024/01/03 08:31:32;;;;;;;17.23;4.78;;;22.60;53.50;;;;;;4956613;28;88292;-83
2024/01/03 08:33:58;;;;;;;16.30;5.15;;;22.60;53.30;;;;;;4959123;28;89735;-80
2024/01/03 08:36:41;;;;;;;15.07;4.78;;;22.60;53.20;;;;;;4962998;28;87519;-81
2024/01/03 08:39:08;;;;;;;15.82;4.57;;;22.70;53.00;;;;;;4963269;28;87803;-79
2024/01/03 08:41:34;;;;;;;12.82;4.75;;;22.70;52.70;;;;;;4970230;28;87119;-79
2024/01/03 08:44:02;;;;;;;16.30;4.65;;;22.70;52.60;;;;;;4966756;28;87261;-79
2024/01/03 08:46:30;;;;;;;17.70;4.78;;;22.70;52.30;;;;;;4968611;28;87081;-82
2024/01/03 08:48:56;;;;;;;12.57;3.80;;;22.80;52.30;;;;;;4971926;28;88196;-81
2024/01/03 08:51:23;;;;;;;12.35;4.22;;;22.80;52.40;;;;;;4966203;28;94298;-83
2024/01/03 08:53:49;;;;;;;17.67;4.72;;;22.80;52.20;;;;;;4968786;28;87624;-81
2024/01/03 08:56:18;;;;;;;12.63;4.15;;;22.80;52.20;;;;;;4964798;28;88857;-87
2024/01/03 08:58:46;;;;;;;11.27;3.45;;;22.80;52.10;;;;;;4962585;28;87487;-81
2024/01/03 09:01:16;;;;;;;16.15;4.38;;;22.90;52.20;;;;;;4964783;28;87083;-86
2024/01/03 09:03:42;;;;;;;12.98;4.25;;;22.90;52.00;;;;;;4980882;28;87024;-85
2024/01/03 09:06:08;;;;;;;13.25;4.63;;;22.90;52.00;;;;;;4979523;28;87926;-83
2024/01/03 09:08:34;;;;;;;11.38;3.70;;;23.00;51.90;;;;;;4978758;28;88002;-85
2024/01/03 09:10:59;;;;;;;15.20;3.97;;;23.00;52.00;;;;;;4973845;28;86988;-81
2024/01/03 09:13:25;;;;;;;12.38;4.00;;;23.00;52.00;;;;;;4968978;28;86926;-81
2024/01/03 09:15:52;;;;;;;10.18;3.78;;;23.00;52.00;;;;;;4962806;28;87629;-81
2024/01/03 09:18:17;;;;;;;13.75;3.40;;;23.00;52.00;;;;;;4964737;28;89198;-84
2024/01/03 09:20:43;;;;;;;12.48;4.53;;;23.00;52.00;;;;;;4961185;28;89004;-82
2024/01/03 09:23:09;;;;;;;13.23;3.70;;;23.10;51.80;;;;;;4958984;28;88071;-81
2024/01/03 09:25:35;;;;;;;13.27;3.83;;;23.10;51.80;;;;;;4957666;28;90678;-82
2024/01/03 09:28:00;;;;;;;9.70;3.25;;;23.10;51.80;;;;;;4963586;28;88013;-84
2024/01/03 09:30:26;;;;;;;10.13;3.10;;;23.10;51.70;;;;;;4957074;28;87101;-81
2024/01/03 09:32:53;;;;;;;11.90;3.70;;;23.10;51.60;;;;;;4960798;28;87546;-82
2024/01/03 09:35:19;;;;;;;11.30;3.25;;;23.20;51.50;;;;;;4959713;28;88279;-83
2024/01/03 09:37:45;;;;;;;12.65;4.40;;;23.20;51.40;;;;;;4959292;28;87506;-87
2024/01/03 09:40:11;;;;;;;12.45;3.45;;;23.20;51.70;;;;;;4959865;28;88363;-82
2024/01/03 09:42:37;;;;;;;8.52;3.63;;;23.20;51.50;;;;;;4959088;28;87517;-82
2024/01/03 09:45:04;;;;;;;14.68;3.65;;;23.20;51.40;;;;;;4958830;28;88514;-89
2024/01/03 09:47:30;;;;;;;16.88;3.58;;;23.20;51.40;;;;;;4951877;28;91734;-81
2024/01/03 09:49:55;;;;;;;9.05;3.58;;;23.20;51.70;;;;;;4957775;28;87719;-87
2024/01/03 09:52:22;;;;;;;10.55;3.15;;;23.20;51.60;;;;;;4956148;28;87386;-82
2024/01/03 09:54:48;;;;;;;14.50;4.10;;;23.20;51.60;;;;;;4956794;28;88093;-80
2024/01/03 09:57:18;;;;;;;17.48;3.30;;;23.20;51.70;;;;;;4954350;28;87779;-82
2024/01/03 09:59:44;;;;;;;17.60;3.72;;;23.20;51.80;;;;;;4951262;28;90334;-82
2024/01/03 10:02:11;;;;;;;14.27;4.20;;;23.20;52.70;;;;;;4956364;28;88042;-84
2024/01/03 10:04:37;;;;;;;13.32;3.58;;;23.20;52.30;;;;;;4955660;28;88142;-83
2024/01/03 10:07:03;;;;;;;25.33;4.57;;;23.10;51.90;;;;;;4953596;28;87767;-81
2024/01/03 10:09:56;;;;;;;20.27;5.25;;;23.10;52.20;;;;;;4956878;28;87997;-82
2024/01/03 10:12:22;;;;;;;24.25;4.07;;;23.10;52.70;;;;;;4953279;28;87901;-85
2024/01/03 10:14:49;;;;;;;22.23;4.22;;;23.10;53.30;;;;;;4955419;28;89069;-79
2024/01/03 10:17:15;;;;;;;20.65;4.45;;;23.10;53.50;;;;;;4956638;28;88954;-85
2024/01/03 10:19:40;;;;;;;17.65;4.15;;;23.10;53.80;;;;;;4957652;28;87778;-90
2024/01/03 10:22:06;;;;;;;13.73;4.10;;;23.10;54.40;;;;;;4953927;28;89605;-86
2024/01/03 10:24:32;;;;;;;18.83;4.72;;;23.00;53.90;;;;;;4958110;28;88108;-87
2024/01/03 10:27:19;;;;;;;17.42;3.88;;;23.00;53.40;;;;;;4957749;28;87256;-84
2024/01/03 10:29:45;;;;;;;30.42;5.22;;;23.00;54.10;;;;;;4954666;28;87099;-81
2024/01/03 10:32:14;;;;;;;16.58;3.75;;;23.00;54.10;;;;;;4956203;28;86924;-83
2024/01/03 10:34:40;;;;;;;;;;;23.00;54.30;;;;;;4955659;28;88616;-82
2024/01/03 10:37:06;;;;;;;20.67;4.60;;;23.10;54.40;;;;;;4956120;28;87807;-85
2024/01/03 10:39:33;;;;;;;17.42;3.72;;;23.10;54.70;;;;;;4955176;28;87423;-85
2024/01/03 10:41:59;;;;;;;20.33;3.45;;;23.10;55.60;;;;;;4953678;28;88259;-85
2024/01/03 10:44:26;;;;;;;19.98;4.55;;;23.10;55.30;;;;;;4953923;28;89360;-87
2024/01/03 10:46:54;;;;;;;16.38;3.95;;;23.10;55.40;;;;;;4947604;28;87471;-86
2024/01/03 10:49:19;;;;;;;15.43;4.22;;;23.10;54.70;;;;;;4951098;28;87499;-86
2024/01/03 10:51:50;;;;;;;19.25;4.88;;;23.10;54.50;;;;;;4954155;28;86956;-87
2024/01/03 10:54:17;;;;;;;20.67;4.57;;;23.20;54.60;;;;;;4956515;28;88251;-88
2024/01/03 10:56:51;;;;;;;20.05;4.68;;;23.10;54.40;;;;;;4955459;28;87487;-85
2024/01/03 10:59:18;;;;;;;17.80;4.20;;;23.10;54.50;;;;;;4953127;28;88911;-89
2024/01/03 11:01:58;;;;;;;17.70;4.45;;;23.10;54.20;;;;;;4955674;28;87938;-86
2024/01/03 11:04:46;;;;;;;19.42;4.13;;;23.10;54.00;;;;;;4953716;28;87728;-89
2024/01/03 11:07:28;;;;;;;16.58;3.85;;;23.10;53.90;;;;;;4953943;28;89018;-84
2024/01/03 11:09:54;;;;;;;14.60;4.10;;;23.10;53.80;;;;;;4948027;28;87626;-83
2024/01/03 11:12:29;;;;;;;24.88;4.38;;;23.10;53.90;;;;;;4949784;28;87830;-84
2024/01/03 11:14:55;;;;;;;14.60;3.97;;;23.10;54.20;;;;;;4951146;28;89173;-84
2024/01/03 11:17:33;;;;;;;19.88;4.13;;;23.10;54.60;;;;;;4947696;28;87185;-85
2024/01/03 11:20:07;;;;;;;14.23;3.30;;;23.10;54.50;;;;;;4945956;28;87369;-86
2024/01/03 11:23:01;;;;;;;13.32;3.83;;;23.10;54.80;;;;;;4949237;28;87730;-84
2024/01/03 11:25:51;;;;;;;20.30;4.82;;;23.10;55.10;;;;;;4954951;28;92249;-84
2024/01/03 11:28:36;;;;;;;13.68;3.50;;;23.20;55.30;;;;;;4945255;28;91527;-83
2024/01/03 11:31:03;;;;;;;19.17;3.97;;;23.10;54.90;;;;;;4950699;28;87611;-85
2024/01/03 11:33:31;;;;;;;15.68;3.95;;;23.10;54.30;;;;;;4947032;28;88214;-85
2024/01/03 11:35:58;;;;;;;23.45;3.47;;;23.10;54.40;;;;;;4955124;28;87449;-81
2024/01/03 11:38:43;;;;;;;19.08;4.20;;;23.10;55.20;;;;;;4954918;28;90372;-81
2024/01/03 11:41:16;;;;;;;14.80;3.78;;;23.10;54.50;;;;;;4957905;28;88381;-81
2024/01/03 11:43:42;;;;;;;40.30;8.75;;;23.10;54.90;;;;;;4957564;28;90582;-82
2024/01/03 11:46:09;;;;;;;28.52;6.32;;;23.10;55.10;;;;;;4957133;28;91494;-85
2024/01/03 11:48:35;;;;;;;26.58;6.20;;;23.10;55.00;;;;;;4958606;28;88565;-83
2024/01/03 11:51:01;;;;;;;26.13;6.07;;;23.20;54.80;;;;;;4960932;28;88791;-82
2024/01/03 11:53:26;;;;;;;30.42;6.65;;;23.20;54.70;;;;;;4962175;28;87676;-82
2024/01/03 11:55:54;;;;;;;25.42;6.38;;;23.20;55.00;;;;;;4960841;28;87664;-84
2024/01/03 11:58:20;;;;;;;33.88;6.60;;;23.30;54.70;;;;;;4957322;28;87689;-83
2024/01/03 12:00:49;;;;;;;32.53;6.05;;;23.30;54.90;;;;;;4960839;28;88174;-83
2024/01/03 12:03:26;;;;;;;27.50;6.45;;;23.30;54.80;;;;;;4955999;28;88567;-83
2024/01/03 12:05:52;;;;;;;20.48;5.95;;;23.30;55.10;;;;;;4953383;28;87990;-83
2024/01/03 12:08:18;;;;;;;27.27;5.93;;;23.30;55.10;;;;;;4956957;28;87271;-86
2024/01/03 12:10:44;;;;;;;27.60;6.15;;;23.30;55.10;;;;;;4953681;28;87499;-87
2024/01/03 12:13:10;;;;;;;27.48;6.28;;;23.40;55.30;;;;;;4952982;28;87349;-85
2024/01/03 12:15:37;;;;;;;19.02;5.47;;;23.40;55.40;;;;;;4949952;28;90212;-83
2024/01/03 12:18:06;;;;;;;28.60;7.40;;;23.30;55.30;;;;;;4957537;28;89515;-81
2024/01/03 12:20:33;;;;;;;22.63;6.03;;;23.40;55.50;;;;;;4955455;28;86980;-86
2024/01/03 12:23:09;;;;;;;24.48;6.35;;;23.40;55.80;;;;;;4953818;28;87865;-84
2024/01/03 12:25:35;;;;;;;22.42;6.38;;;23.30;55.60;;;;;;4955217;28;90736;-82
2024/01/03 12:28:01;;;;;;;21.55;5.53;;;23.30;55.70;;;;;;4951404;28;88231;-82
2024/01/03 12:30:26;;;;;;;20.90;5.00;;;23.30;55.90;;;;;;4954735;28;87410;-82
2024/01/03 12:33:11;;;;;;;18.40;5.53;;;23.30;56.00;;;;;;4957281;28;87399;-86
2024/01/03 12:35:37;;;;;;;17.33;6.15;;;23.30;55.70;;;;;;4955089;28;89191;-83
2024/01/03 12:38:04;;;;;;;19.15;5.15;;;23.30;55.90;;;;;;4957864;28;87260;-82
2024/01/03 12:40:30;;;;;;;19.65;5.50;;;23.30;56.20;;;;;;4953421;28;89306;-85
2024/01/03 12:42:56;;;;;;;22.40;4.97;;;23.30;56.40;;;;;;4954901;28;87634;-82